sensor_id;sensor_type;location;lat;lon;timestamp;pressure;altitude;pressure_sealevel;temperature;humidity
48862;BME280;34681;49.188;-0.374;2023-07-28T00:01:48;100517.66;;;22.53;70.08
48862;BME280;34681;49.188;-0.374;2023-07-28T00:04:13;100520.59;;;22.58;69.53
48862;BME280;34681;49.188;-0.374;2023-07-28T00:06:39;100519.31;;;22.61;69.61
48862;BME280;34681;49.188;-0.374;2023-07-28T00:09:04;100521.69;;;22.57;69.72
48862;BME280;34681;49.188;-0.374;2023-07-28T00:11:29;100521.91;;;22.56;70.08
48862;BME280;34681;49.188;-0.374;2023-07-28T00:13:55;100519.75;;;22.58;70.13
48862;BME280;34681;49.188;-0.374;2023-07-28T00:16:20;100516.97;;;22.58;70.35
48862;BME280;34681;49.188;-0.374;2023-07-28T00:18:45;100518.91;;;22.57;70.28
48862;BME280;34681;49.188;-0.374;2023-07-28T00:21:11;100523.63;;;22.57;70.26
48862;BME280;34681;49.188;-0.374;2023-07-28T00:23:36;100512.22;;;22.58;70.51
48862;BME280;34681;49.188;-0.374;2023-07-28T00:26:01;100510.28;;;22.59;70.52
48862;BME280;34681;49.188;-0.374;2023-07-28T00:28:27;100517.19;;;22.56;70.36
48862;BME280;34681;49.188;-0.374;2023-07-28T00:30:52;100515.25;;;22.57;70.40
48862;BME280;34681;49.188;-0.374;2023-07-28T00:33:18;100515.50;;;22.55;70.44
48862;BME280;34681;49.188;-0.374;2023-07-28T00:35:43;100513.56;;;22.56;70.57
48862;BME280;34681;49.188;-0.374;2023-07-28T00:38:09;100522.34;;;22.59;70.66
48862;BME280;34681;49.188;-0.374;2023-07-28T00:40:37;100522.34;;;22.59;70.74
48862;BME280;34681;49.188;-0.374;2023-07-28T00:43:03;100514.88;;;22.53;70.71
48862;BME280;34681;49.188;-0.374;2023-07-28T00:45:29;100518.28;;;22.55;71.13
48862;BME280;34681;49.188;-0.374;2023-07-28T00:47:56;100524.09;;;22.54;70.80
48862;BME280;34681;49.188;-0.374;2023-07-28T00:50:25;100520.22;;;22.55;71.04
48862;BME280;34681;49.188;-0.374;2023-07-28T00:52:51;100531.53;;;22.60;70.61
48862;BME280;34681;49.188;-0.374;2023-07-28T00:55:17;100521.84;;;22.62;70.35
48862;BME280;34681;49.188;-0.374;2023-07-28T00:57:43;100519.06;;;22.62;70.30
48862;BME280;34681;49.188;-0.374;2023-07-28T01:00:09;100528.59;;;22.55;70.53
48862;BME280;34681;49.188;-0.374;2023-07-28T01:02:35;100525.56;;;22.56;70.38
48862;BME280;34681;49.188;-0.374;2023-07-28T01:05:01;100530.47;;;22.61;70.17
48862;BME280;34681;49.188;-0.374;2023-07-28T01:07:43;100530.84;;;22.64;69.27
48862;BME280;34681;49.188;-0.374;2023-07-28T01:10:22;100523.63;;;22.57;69.46
48862;BME280;34681;49.188;-0.374;2023-07-28T01:12:49;100536.47;;;22.58;69.22
48862;BME280;34681;49.188;-0.374;2023-07-28T01:15:14;100525.13;;;22.59;69.16
48862;BME280;34681;49.188;-0.374;2023-07-28T01:17:41;100530.47;;;22.61;68.69
48862;BME280;34681;49.188;-0.374;2023-07-28T01:20:06;100526.81;;;22.60;68.67
48862;BME280;34681;49.188;-0.374;2023-07-28T01:25:53;100526.41;;;22.57;67.99
48862;BME280;34681;49.188;-0.374;2023-07-28T01:28:20;100529.50;;;22.49;68.21
48862;BME280;34681;49.188;-0.374;2023-07-28T01:30:46;100538.03;;;22.54;68.33
48862;BME280;34681;49.188;-0.374;2023-07-28T01:33:11;100537.19;;;22.53;68.23
48862;BME280;34681;49.188;-0.374;2023-07-28T01:35:37;100547.91;;;22.50;68.20
48862;BME280;34681;49.188;-0.374;2023-07-28T01:38:03;100542.16;;;22.51;68.29
48862;BME280;34681;49.188;-0.374;2023-07-28T01:40:29;100533.13;;;22.49;68.32
48862;BME280;34681;49.188;-0.374;2023-07-28T01:42:55;100539.41;;;22.45;68.50
48862;BME280;34681;49.188;-0.374;2023-07-28T01:45:20;100536.88;;;22.43;68.34
48862;BME280;34681;49.188;-0.374;2023-07-28T01:47:45;100537.06;;;22.41;68.62
48862;BME280;34681;49.188;-0.374;2023-07-28T01:50:11;100539.84;;;22.41;68.58
48862;BME280;34681;49.188;-0.374;2023-07-28T01:52:36;100537.06;;;22.41;68.69
48862;BME280;34681;49.188;-0.374;2023-07-28T01:55:01;100545.44;;;22.41;68.58
48862;BME280;34681;49.188;-0.374;2023-07-28T01:57:27;100540.56;;;22.37;69.03
48862;BME280;34681;49.188;-0.374;2023-07-28T01:59:54;100543.78;;;22.34;68.52
48862;BME280;34681;49.188;-0.374;2023-07-28T02:02:19;100541.09;;;22.27;68.93
48862;BME280;34681;49.188;-0.374;2023-07-28T02:04:45;100534.88;;;22.25;68.77
48862;BME280;34681;49.188;-0.374;2023-07-28T02:07:11;100535.59;;;22.39;68.60
48862;BME280;34681;49.188;-0.374;2023-07-28T02:09:36;100537.34;;;22.33;68.25
48862;BME280;34681;49.188;-0.374;2023-07-28T02:12:02;100544.44;;;22.36;68.41
48862;BME280;34681;49.188;-0.374;2023-07-28T02:14:27;100542.09;;;22.33;68.46
48862;BME280;34681;49.188;-0.374;2023-07-28T02:16:52;100538.84;;;22.36;68.30
48862;BME280;34681;49.188;-0.374;2023-07-28T02:19:18;100544.66;;;22.34;68.48
48862;BME280;34681;49.188;-0.374;2023-07-28T02:21:43;100537.78;;;22.37;68.05
48862;BME280;34681;49.188;-0.374;2023-07-28T02:24:08;100530.09;;;22.32;67.99
48862;BME280;34681;49.188;-0.374;2023-07-28T02:26:34;100527.53;;;22.31;68.08
48862;BME280;34681;49.188;-0.374;2023-07-28T02:28:59;100527.34;;;22.26;67.90
48862;BME280;34681;49.188;-0.374;2023-07-28T02:31:24;100532.06;;;22.25;68.52
48862;BME280;34681;49.188;-0.374;2023-07-28T02:33:50;100529.28;;;22.25;68.26
48862;BME280;34681;49.188;-0.374;2023-07-28T02:36:15;100524.19;;;22.22;68.26
48862;BME280;34681;49.188;-0.374;2023-07-28T02:38:40;100522.25;;;22.23;68.60
48862;BME280;34681;49.188;-0.374;2023-07-28T02:41:05;100513.28;;;22.21;68.61
48862;BME280;34681;49.188;-0.374;2023-07-28T02:43:32;100524.84;;;22.18;68.55
48862;BME280;34681;49.188;-0.374;2023-07-28T02:45:57;100514.59;;;22.18;68.72
48862;BME280;34681;49.188;-0.374;2023-07-28T02:48:23;100520.38;;;22.17;69.12
48862;BME280;34681;49.188;-0.374;2023-07-28T02:50:50;100521.00;;;22.19;68.99
48862;BME280;34681;49.188;-0.374;2023-07-28T02:53:15;100514.78;;;22.17;69.16
48862;BME280;34681;49.188;-0.374;2023-07-28T02:55:45;100525.94;;;22.17;69.45
48862;BME280;34681;49.188;-0.374;2023-07-28T02:58:11;100521.94;;;22.12;69.19
48862;BME280;34681;49.188;-0.374;2023-07-28T03:03:02;100536.09;;;22.11;69.51
48862;BME280;34681;49.188;-0.374;2023-07-28T03:05:27;100529.66;;;22.10;69.55
48862;BME280;34681;49.188;-0.374;2023-07-28T03:07:53;100525.78;;;22.11;69.39
48862;BME280;34681;49.188;-0.374;2023-07-28T03:10:18;100536.47;;;22.14;69.67
48862;BME280;34681;49.188;-0.374;2023-07-28T03:12:43;100528.81;;;22.10;69.56
48862;BME280;34681;49.188;-0.374;2023-07-28T03:15:09;100531.59;;;22.10;69.48
48862;BME280;34681;49.188;-0.374;2023-07-28T03:17:34;100528.81;;;22.10;69.90
48862;BME280;34681;49.188;-0.374;2023-07-28T03:20:00;100530.75;;;22.09;69.53
48862;BME280;34681;49.188;-0.374;2023-07-28T03:22:25;100524.53;;;22.01;69.51
48862;BME280;34681;49.188;-0.374;2023-07-28T03:24:51;100526.72;;;21.99;69.69
48862;BME280;34681;49.188;-0.374;2023-07-28T03:27:16;100525.00;;;21.98;69.87
48862;BME280;34681;49.188;-0.374;2023-07-28T03:29:41;100527.31;;;22.01;69.67
48862;BME280;34681;49.188;-0.374;2023-07-28T03:32:06;100528.41;;;22.00;69.95
48862;BME280;34681;49.188;-0.374;2023-07-28T03:34:32;100521.56;;;22.02;69.86
48862;BME280;34681;49.188;-0.374;2023-07-28T03:36:57;100528.84;;;22.03;69.86
48862;BME280;34681;49.188;-0.374;2023-07-28T03:39:22;100522.41;;;22.03;70.07
48862;BME280;34681;49.188;-0.374;2023-07-28T03:41:48;100527.13;;;22.02;70.18
48862;BME280;34681;49.188;-0.374;2023-07-28T03:44:13;100529.44;;;22.05;69.96
48862;BME280;34681;49.188;-0.374;2023-07-28T03:46:40;100522.84;;;22.00;70.25
48862;BME280;34681;49.188;-0.374;2023-07-28T03:49:06;100529.69;;;22.04;70.13
48862;BME280;34681;49.188;-0.374;2023-07-28T03:51:31;100524.97;;;22.04;70.36
48862;BME280;34681;49.188;-0.374;2023-07-28T03:53:56;100533.31;;;22.04;70.24
48862;BME280;34681;49.188;-0.374;2023-07-28T03:56:22;100527.50;;;22.06;70.13
48862;BME280;34681;49.188;-0.374;2023-07-28T03:58:47;100536.56;;;22.01;70.16
48862;BME280;34681;49.188;-0.374;2023-07-28T04:01:12;100529.25;;;22.00;70.60
48862;BME280;34681;49.188;-0.374;2023-07-28T04:03:38;100523.50;;;22.02;70.44
48862;BME280;34681;49.188;-0.374;2023-07-28T04:06:10;100523.88;;;22.05;70.61
48862;BME280;34681;49.188;-0.374;2023-07-28T04:08:36;100522.63;;;22.01;70.47
48862;BME280;34681;49.188;-0.374;2023-07-28T04:11:01;100527.13;;;22.02;70.55
48862;BME280;34681;49.188;-0.374;2023-07-28T04:13:27;100525.25;;;21.96;70.56
48862;BME280;34681;49.188;-0.374;2023-07-28T04:15:52;100516.88;;;21.96;70.65
48862;BME280;34681;49.188;-0.374;2023-07-28T04:18:17;100524.16;;;21.97;70.74
48862;BME280;34681;49.188;-0.374;2023-07-28T04:20:43;100523.31;;;21.97;70.42
48862;BME280;34681;49.188;-0.374;2023-07-28T04:23:08;100522.91;;;21.93;70.72
48862;BME280;34681;49.188;-0.374;2023-07-28T04:25:34;100523.53;;;21.95;70.68
48862;BME280;34681;49.188;-0.374;2023-07-28T04:27:59;100524.38;;;21.96;70.56
48862;BME280;34681;49.188;-0.374;2023-07-28T04:30:24;100515.81;;;21.97;70.75
48862;BME280;34681;49.188;-0.374;2023-07-28T04:32:50;100518.19;;;21.94;70.57
48862;BME280;34681;49.188;-0.374;2023-07-28T04:35:15;100526.31;;;21.95;70.68
48862;BME280;34681;49.188;-0.374;2023-07-28T04:37:40;100525.84;;;21.98;70.67
48862;BME280;34681;49.188;-0.374;2023-07-28T04:40:07;100532.50;;;21.97;70.71
48862;BME280;34681;49.188;-0.374;2023-07-28T04:42:33;100531.44;;;21.98;70.67
48862;BME280;34681;49.188;-0.374;2023-07-28T04:44:58;100527.19;;;21.96;70.84
48862;BME280;34681;49.188;-0.374;2023-07-28T04:47:24;100531.66;;;21.97;70.62
48862;BME280;34681;49.188;-0.374;2023-07-28T04:49:49;100528.22;;;22.01;70.73
48862;BME280;34681;49.188;-0.374;2023-07-28T04:52:14;100542.53;;;22.05;70.55
48862;BME280;34681;49.188;-0.374;2023-07-28T04:54:40;100533.09;;;22.06;70.52
48862;BME280;34681;49.188;-0.374;2023-07-28T04:57:05;100533.53;;;22.09;70.57
48862;BME280;34681;49.188;-0.374;2023-07-28T04:59:31;100533.53;;;22.09;70.63
48862;BME280;34681;49.188;-0.374;2023-07-28T05:01:56;100532.44;;;22.10;70.68
48862;BME280;34681;49.188;-0.374;2023-07-28T05:04:22;100538.88;;;22.11;70.73
48862;BME280;34681;49.188;-0.374;2023-07-28T05:06:47;100535.00;;;22.12;70.68
48862;BME280;34681;49.188;-0.374;2023-07-28T05:09:12;100539.25;;;22.14;70.49
48862;BME280;34681;49.188;-0.374;2023-07-28T05:14:03;100542.88;;;22.15;70.62
48862;BME280;34681;49.188;-0.374;2023-07-28T05:16:31;100541.66;;;22.11;70.62
48862;BME280;34681;49.188;-0.374;2023-07-28T05:18:57;100537.16;;;22.10;70.61
48862;BME280;34681;49.188;-0.374;2023-07-28T05:21:22;100536.31;;;22.09;70.84
48862;BME280;34681;49.188;-0.374;2023-07-28T05:23:47;100541.88;;;22.09;70.52
48862;BME280;34681;49.188;-0.374;2023-07-28T05:26:13;100541.25;;;22.07;70.87
48862;BME280;34681;49.188;-0.374;2023-07-28T05:28:38;100539.75;;;22.05;70.95
48862;BME280;34681;49.188;-0.374;2023-07-28T05:31:07;100547.47;;;22.09;70.74
48862;BME280;34681;49.188;-0.374;2023-07-28T05:33:33;100545.53;;;22.10;70.86
48862;BME280;34681;49.188;-0.374;2023-07-28T05:36:00;100550.16;;;22.16;70.79
48862;BME280;34681;49.188;-0.374;2023-07-28T05:38:26;100546.94;;;22.19;70.91
48862;BME280;34681;49.188;-0.374;2023-07-28T05:41:02;100552.91;;;22.23;70.59
48862;BME280;34681;49.188;-0.374;2023-07-28T05:43:29;100549.25;;;22.22;70.82
48862;BME280;34681;49.188;-0.374;2023-07-28T05:45:54;100553.53;;;22.25;70.99
48862;BME280;34681;49.188;-0.374;2023-07-28T05:48:20;100550.28;;;22.28;70.72
48862;BME280;34681;49.188;-0.374;2023-07-28T05:50:46;100561.22;;;22.29;70.85
48862;BME280;34681;49.188;-0.374;2023-07-28T05:53:11;100562.44;;;22.33;70.69
48862;BME280;34681;49.188;-0.374;2023-07-28T05:55:36;100552.56;;;22.37;70.44
48862;BME280;34681;49.188;-0.374;2023-07-28T05:58:02;100557.06;;;22.38;70.59
48862;BME280;34681;49.188;-0.374;2023-07-28T06:00:27;100552.94;;;22.41;70.34
48862;BME280;34681;49.188;-0.374;2023-07-28T06:02:53;100556.47;;;22.55;70.30
48862;BME280;34681;49.188;-0.374;2023-07-28T06:05:18;100552.59;;;22.74;69.95
48862;BME280;34681;49.188;-0.374;2023-07-28T06:07:44;100553.59;;;22.86;70.03
48862;BME280;34681;49.188;-0.374;2023-07-28T06:10:09;100553.66;;;22.98;69.80
48862;BME280;34681;49.188;-0.374;2023-07-28T06:12:35;100556.97;;;23.07;69.69
48862;BME280;34681;49.188;-0.374;2023-07-28T06:15:01;100564.19;;;23.14;69.40
48862;BME280;34681;49.188;-0.374;2023-07-28T06:17:27;100566.22;;;23.25;69.22
48862;BME280;34681;49.188;-0.374;2023-07-28T06:19:53;100562.00;;;23.35;69.04
48862;BME280;34681;49.188;-0.374;2023-07-28T06:22:19;100561.34;;;23.51;68.65
48862;BME280;34681;49.188;-0.374;2023-07-28T06:24:44;100568.75;;;23.57;68.58
48862;BME280;34681;49.188;-0.374;2023-07-28T06:27:10;100552.19;;;23.62;68.19
48862;BME280;34681;49.188;-0.374;2023-07-28T06:29:35;100561.25;;;23.76;67.98
48862;BME280;34681;49.188;-0.374;2023-07-28T06:32:01;100559.47;;;24.58;66.21
48862;BME280;34681;49.188;-0.374;2023-07-28T06:34:26;100573.03;;;25.25;64.74
48862;BME280;34681;49.188;-0.374;2023-07-28T06:36:52;100570.09;;;25.20;63.91
48862;BME280;34681;49.188;-0.374;2023-07-28T06:39:17;100562.34;;;24.87;64.58
48862;BME280;34681;49.188;-0.374;2023-07-28T06:41:43;100566.75;;;24.83;64.41
48862;BME280;34681;49.188;-0.374;2023-07-28T06:44:08;100560.97;;;25.25;64.18
48862;BME280;34681;49.188;-0.374;2023-07-28T06:46:34;100556.81;;;25.27;63.74
48862;BME280;34681;49.188;-0.374;2023-07-28T06:48:59;100552.19;;;25.21;63.68
48862;BME280;34681;49.188;-0.374;2023-07-28T06:51:25;100561.06;;;25.30;63.60
48862;BME280;34681;49.188;-0.374;2023-07-28T06:53:51;100562.94;;;25.01;64.09
48862;BME280;34681;49.188;-0.374;2023-07-28T06:56:16;100565.88;;;24.71;64.48
48862;BME280;34681;49.188;-0.374;2023-07-28T06:58:41;100562.00;;;24.48;64.76
48862;BME280;34681;49.188;-0.374;2023-07-28T07:01:07;100567.31;;;24.26;65.31
48862;BME280;34681;49.188;-0.374;2023-07-28T07:03:36;100567.66;;;24.18;65.21
48862;BME280;34681;49.188;-0.374;2023-07-28T07:06:01;100574.59;;;24.27;65.35
48862;BME280;34681;49.188;-0.374;2023-07-28T07:08:26;100582.16;;;24.38;64.95
48862;BME280;34681;49.188;-0.374;2023-07-28T07:10:52;100577.31;;;24.46;64.59
48862;BME280;34681;49.188;-0.374;2023-07-28T07:13:18;100577.31;;;24.57;63.82
48862;BME280;34681;49.188;-0.374;2023-07-28T07:15:43;100583.16;;;24.79;63.40
48862;BME280;34681;49.188;-0.374;2023-07-28T07:18:09;100585.47;;;24.94;62.83
48862;BME280;34681;49.188;-0.374;2023-07-28T07:20:35;100590.56;;;24.97;62.64
48862;BME280;34681;49.188;-0.374;2023-07-28T07:23:01;100584.59;;;25.05;62.50
48862;BME280;34681;49.188;-0.374;2023-07-28T07:25:26;100593.72;;;24.89;62.58
48862;BME280;34681;49.188;-0.374;2023-07-28T07:27:52;100590.31;;;24.87;62.76
48862;BME280;34681;49.188;-0.374;2023-07-28T07:30:17;100592.03;;;25.00;62.43
48862;BME280;34681;49.188;-0.374;2023-07-28T07:32:43;100586.66;;;25.21;62.28
48862;BME280;34681;49.188;-0.374;2023-07-28T07:35:08;100583.50;;;25.06;62.54
48862;BME280;34681;49.188;-0.374;2023-07-28T07:37:34;100586.19;;;25.13;62.61
48862;BME280;34681;49.188;-0.374;2023-07-28T07:39:59;100593.63;;;25.47;62.45
48862;BME280;34681;49.188;-0.374;2023-07-28T07:42:40;100588.41;;;26.08;61.57
48862;BME280;34681;49.188;-0.374;2023-07-28T07:45:08;100591.69;;;26.50;60.68
48862;BME280;34681;49.188;-0.374;2023-07-28T07:47:34;100597.47;;;26.44;60.61
48862;BME280;34681;49.188;-0.374;2023-07-28T07:49:59;100593.75;;;26.10;60.61
48862;BME280;34681;49.188;-0.374;2023-07-28T07:52:25;100601.75;;;25.61;61.06
48862;BME280;34681;49.188;-0.374;2023-07-28T07:54:51;100596.09;;;25.44;61.13
48862;BME280;34681;49.188;-0.374;2023-07-28T07:57:16;100601.69;;;25.44;61.29
48862;BME280;34681;49.188;-0.374;2023-07-28T07:59:42;100600.31;;;25.58;61.38
48862;BME280;34681;49.188;-0.374;2023-07-28T08:02:08;100597.72;;;25.68;61.35
48862;BME280;34681;49.188;-0.374;2023-07-28T08:04:33;100593.28;;;25.84;61.02
48862;BME280;34681;49.188;-0.374;2023-07-28T08:06:59;100610.00;;;26.08;60.67
48862;BME280;34681;49.188;-0.374;2023-07-28T08:09:24;100601.31;;;26.09;60.68
48862;BME280;34681;49.188;-0.374;2023-07-28T08:11:50;100604.53;;;26.01;60.98
48862;BME280;34681;49.188;-0.374;2023-07-28T08:14:15;100597.69;;;25.80;61.29
48862;BME280;34681;49.188;-0.374;2023-07-28T08:16:41;100598.31;;;25.70;61.55
48862;BME280;34681;49.188;-0.374;2023-07-28T08:19:06;100616.16;;;25.53;61.88
48862;BME280;34681;49.188;-0.374;2023-07-28T08:21:31;100610.44;;;25.47;62.02
48862;BME280;34681;49.188;-0.374;2023-07-28T08:24:02;100609.44;;;25.65;61.81
48862;BME280;34681;49.188;-0.374;2023-07-28T08:26:29;100605.19;;;25.91;61.69
48862;BME280;34681;49.188;-0.374;2023-07-28T08:28:55;100609.53;;;26.61;60.48
48862;BME280;34681;49.188;-0.374;2023-07-28T08:31:20;100610.53;;;27.27;59.34
48862;BME280;34681;49.188;-0.374;2023-07-28T08:33:46;100611.47;;;27.33;58.81
48862;BME280;34681;49.188;-0.374;2023-07-28T08:36:11;100612.72;;;27.64;58.40
48862;BME280;34681;49.188;-0.374;2023-07-28T08:38:36;100614.75;;;28.49;56.90
48862;BME280;34681;49.188;-0.374;2023-07-28T08:41:02;100615.28;;;28.19;56.31
48862;BME280;34681;49.188;-0.374;2023-07-28T08:43:28;100611.84;;;28.12;55.24
48862;BME280;34681;49.188;-0.374;2023-07-28T08:45:53;100624.03;;;29.92;52.04
48862;BME280;34681;49.188;-0.374;2023-07-28T08:48:19;100622.97;;;31.25;49.71
48862;BME280;34681;49.188;-0.374;2023-07-28T08:50:45;100615.13;;;32.31;47.73
48862;BME280;34681;49.188;-0.374;2023-07-28T08:53:10;100630.63;;;31.20;47.16
48862;BME280;34681;49.188;-0.374;2023-07-28T08:55:35;100613.72;;;30.23;47.75
48862;BME280;34681;49.188;-0.374;2023-07-28T08:58:21;100615.41;;;29.46;49.70
48862;BME280;34681;49.188;-0.374;2023-07-28T09:00:48;100612.63;;;29.04;50.44
48862;BME280;34681;49.188;-0.374;2023-07-28T09:03:17;100620.94;;;36.53;39.60
48862;BME280;34681;49.188;-0.374;2023-07-28T09:05:44;100610.97;;;39.69;34.47
48862;BME280;34681;49.188;-0.374;2023-07-28T09:08:14;100608.84;;;40.91;32.70
48862;BME280;34681;49.188;-0.374;2023-07-28T09:10:47;100603.91;;;38.38;33.67
48862;BME280;34681;49.188;-0.374;2023-07-28T09:13:18;100602.34;;;37.00;35.38
48862;BME280;34681;49.188;-0.374;2023-07-28T09:15:44;100602.44;;;36.28;36.07
48862;BME280;34681;49.188;-0.374;2023-07-28T09:18:19;100597.91;;;34.62;38.05
48862;BME280;34681;49.188;-0.374;2023-07-28T09:20:45;100591.19;;;33.35;39.64
48862;BME280;34681;49.188;-0.374;2023-07-28T09:23:14;100595.19;;;32.76;41.02
48862;BME280;34681;49.188;-0.374;2023-07-28T09:25:40;100600.97;;;32.36;41.63
48862;BME280;34681;49.188;-0.374;2023-07-28T09:28:05;100594.97;;;32.72;41.11
48862;BME280;34681;49.188;-0.374;2023-07-28T09:30:45;100599.34;;;37.36;35.52
48862;BME280;34681;49.188;-0.374;2023-07-28T09:33:11;100608.53;;;44.64;26.92
48862;BME280;34681;49.188;-0.374;2023-07-28T09:35:47;100612.94;;;44.58;25.02
48862;BME280;34681;49.188;-0.374;2023-07-28T09:38:14;100606.91;;;44.86;24.04
48862;BME280;34681;49.188;-0.374;2023-07-28T09:40:40;100596.72;;;43.00;26.47
48862;BME280;34681;49.188;-0.374;2023-07-28T09:43:05;100606.63;;;44.33;24.53
48862;BME280;34681;49.188;-0.374;2023-07-28T09:45:31;100595.47;;;39.99;28.78
48862;BME280;34681;49.188;-0.374;2023-07-28T09:47:58;100596.88;;;38.27;30.81
48862;BME280;34681;49.188;-0.374;2023-07-28T09:50:26;100609.16;;;36.32;33.42
48862;BME280;34681;49.188;-0.374;2023-07-28T09:52:53;100601.13;;;34.88;35.37
48862;BME280;34681;49.188;-0.374;2023-07-28T09:55:22;100601.75;;;34.52;36.29
48862;BME280;34681;49.188;-0.374;2023-07-28T09:57:52;100603.47;;;34.34;36.86
48862;BME280;34681;49.188;-0.374;2023-07-28T10:00:18;100610.38;;;33.67;37.80
48862;BME280;34681;49.188;-0.374;2023-07-28T10:02:46;100612.88;;;32.96;38.89
48862;BME280;34681;49.188;-0.374;2023-07-28T10:05:12;100610.38;;;32.22;39.94
48862;BME280;34681;49.188;-0.374;2023-07-28T10:07:42;100604.53;;;31.53;41.24
48862;BME280;34681;49.188;-0.374;2023-07-28T10:10:11;100605.72;;;31.32;42.19
48862;BME280;34681;49.188;-0.374;2023-07-28T10:15:14;100600.75;;;31.73;41.73
48862;BME280;34681;49.188;-0.374;2023-07-28T10:17:44;100593.66;;;31.76;41.28
48862;BME280;34681;49.188;-0.374;2023-07-28T10:25:37;100588.81;;;32.26;40.55
48862;BME280;34681;49.188;-0.374;2023-07-28T10:28:04;100591.69;;;32.21;40.28
48862;BME280;34681;49.188;-0.374;2023-07-28T10:30:35;100591.13;;;31.79;40.51
48862;BME280;34681;49.188;-0.374;2023-07-28T10:33:02;100589.00;;;31.46;41.24
48862;BME280;34681;49.188;-0.374;2023-07-28T10:35:28;100589.81;;;31.51;41.78
48862;BME280;34681;49.188;-0.374;2023-07-28T10:37:56;100591.44;;;31.68;41.68
48862;BME280;34681;49.188;-0.374;2023-07-28T10:40:34;100583.19;;;31.81;41.42
48862;BME280;34681;49.188;-0.374;2023-07-28T10:43:01;100589.13;;;31.75;41.29
48862;BME280;34681;49.188;-0.374;2023-07-28T10:45:29;100588.06;;;31.66;41.62
48862;BME280;34681;49.188;-0.374;2023-07-28T10:47:56;100589.44;;;31.73;41.19
48862;BME280;34681;49.188;-0.374;2023-07-28T10:50:22;100589.38;;;31.89;41.24
48862;BME280;34681;49.188;-0.374;2023-07-28T10:52:48;100588.03;;;32.20;40.82
48862;BME280;34681;49.188;-0.374;2023-07-28T10:55:20;100588.34;;;32.13;40.63
48862;BME280;34681;49.188;-0.374;2023-07-28T10:57:46;100599.94;;;31.63;40.69
48862;BME280;34681;49.188;-0.374;2023-07-28T11:00:17;100603.16;;;31.41;41.46
48862;BME280;34681;49.188;-0.374;2023-07-28T11:02:44;100610.00;;;31.09;42.09
48862;BME280;34681;49.188;-0.374;2023-07-28T11:07:58;100594.81;;;30.49;42.96
48862;BME280;34681;49.188;-0.374;2023-07-28T11:10:25;100594.81;;;30.49;43.14
48862;BME280;34681;49.188;-0.374;2023-07-28T11:12:53;100602.16;;;30.40;43.64
48862;BME280;34681;49.188;-0.374;2023-07-28T11:15:19;100595.94;;;30.58;43.35
48862;BME280;34681;49.188;-0.374;2023-07-28T11:17:46;100605.25;;;30.84;42.56
48862;BME280;34681;49.188;-0.374;2023-07-28T11:20:22;100604.09;;;30.85;42.58
48862;BME280;34681;49.188;-0.374;2023-07-28T11:22:59;100591.72;;;30.71;42.79
48862;BME280;34681;49.188;-0.374;2023-07-28T11:25:26;100594.22;;;30.37;43.22
48862;BME280;34681;49.188;-0.374;2023-07-28T11:28:21;100597.63;;;30.34;43.42
48862;BME280;34681;49.188;-0.374;2023-07-28T11:30:47;100600.72;;;30.27;43.45
48862;BME280;34681;49.188;-0.374;2023-07-28T11:33:13;100602.72;;;30.47;43.11
48862;BME280;34681;49.188;-0.374;2023-07-28T11:35:39;100603.03;;;30.71;42.96
48862;BME280;34681;49.188;-0.374;2023-07-28T11:38:06;100596.78;;;30.89;42.59
48862;BME280;34681;49.188;-0.374;2023-07-28T11:40:33;100609.44;;;31.12;42.44
48862;BME280;34681;49.188;-0.374;2023-07-28T11:42:58;100605.44;;;31.34;41.69
48862;BME280;34681;49.188;-0.374;2023-07-28T11:45:24;100607.97;;;31.35;41.51
48862;BME280;34681;49.188;-0.374;2023-07-28T11:48:00;100605.38;;;31.44;41.58
48862;BME280;34681;49.188;-0.374;2023-07-28T11:50:28;100613.34;;;31.37;41.75
48862;BME280;34681;49.188;-0.374;2023-07-28T11:52:54;100601.25;;;31.06;41.52
48862;BME280;34681;49.188;-0.374;2023-07-28T11:55:21;100605.81;;;30.81;42.29
48862;BME280;34681;49.188;-0.374;2023-07-28T11:57:47;100595.38;;;30.82;42.52
48862;BME280;34681;49.188;-0.374;2023-07-28T12:00:13;100597.38;;;30.71;42.43
48862;BME280;34681;49.188;-0.374;2023-07-28T12:02:42;100602.16;;;30.55;42.09
48862;BME280;34681;49.188;-0.374;2023-07-28T12:05:15;100599.31;;;30.40;42.65
48862;BME280;34681;49.188;-0.374;2023-07-28T12:07:47;100596.50;;;30.40;42.98
48862;BME280;34681;49.188;-0.374;2023-07-28T12:10:13;100596.22;;;30.46;42.56
48862;BME280;34681;49.188;-0.374;2023-07-28T12:12:44;100597.63;;;30.64;42.15
48862;BME280;34681;49.188;-0.374;2023-07-28T12:18:09;100595.63;;;30.60;42.67
48862;BME280;34681;49.188;-0.374;2023-07-28T12:20:35;100608.06;;;30.64;42.61
48862;BME280;34681;49.188;-0.374;2023-07-28T12:23:01;100609.75;;;30.49;42.71
48862;BME280;34681;49.188;-0.374;2023-07-28T12:25:26;100601.28;;;30.34;43.13
48862;BME280;34681;49.188;-0.374;2023-07-28T12:27:52;100601.22;;;30.04;43.71
48862;BME280;34681;49.188;-0.374;2023-07-28T12:30:17;100600.88;;;29.75;44.03
48862;BME280;34681;49.188;-0.374;2023-07-28T12:32:43;100596.22;;;29.38;44.70
48862;BME280;34681;49.188;-0.374;2023-07-28T12:35:08;100599.56;;;29.30;45.10
48862;BME280;34681;49.188;-0.374;2023-07-28T12:37:34;100601.38;;;29.56;44.95
48862;BME280;34681;49.188;-0.374;2023-07-28T12:39:59;100595.81;;;29.87;44.58
48862;BME280;34681;49.188;-0.374;2023-07-28T12:42:26;100589.72;;;30.15;44.09
48862;BME280;34681;49.188;-0.374;2023-07-28T12:44:51;100595.38;;;30.56;43.29
48862;BME280;34681;49.188;-0.374;2023-07-28T12:47:17;100592.84;;;30.75;43.35
48862;BME280;34681;49.188;-0.374;2023-07-28T12:49:42;100583.22;;;30.91;43.17
48862;BME280;34681;49.188;-0.374;2023-07-28T12:52:08;100597.03;;;30.98;42.55
48862;BME280;34681;49.188;-0.374;2023-07-28T12:54:34;100596.16;;;31.08;42.56
48862;BME280;34681;49.188;-0.374;2023-07-28T12:57:00;100590.78;;;31.16;42.50
48862;BME280;34681;49.188;-0.374;2023-07-28T12:59:26;100589.66;;;31.12;42.79